Time;durP1;ratioP1;P1;durP2;ratioP2;P2;SDS_P1;SDS_P2;PMS_P1;PMS_P2;Temp;Humidity;BMP_temperature;BMP_pressure;BME280_temperature;BME280_humidity;BME280_pressure;Samples;Min_cycle;Max_cycle;Signal;HPM_P1;HPM_P2
2023/09/29 00:01:07;;;;;;;4.88;1.88;;;;;;;;;;4949972;28;20023;-81
2023/09/29 00:03:33;;;;;;;6.35;1.98;;;;;;;;;;4955625;28;20033;-82
2023/09/29 00:05:59;;;;;;;4.10;1.88;;;;;;;;;;4953969;28;20016;-80
2023/09/29 00:08:25;;;;;;;3.67;1.48;;;;;;;;;;4956351;28;20520;-81
2023/09/29 00:10:51;;;;;;;2.13;1.02;;;;;;;;;;4955763;28;20027;-81
2023/09/29 00:13:17;;;;;;;3.95;1.63;;;;;;;;;;4946684;28;20033;-81
2023/09/29 00:15:43;;;;;;;3.58;1.48;;;;;;;;;;4951002;28;20127;-81
2023/09/29 00:18:09;;;;;;;3.75;1.70;;;;;;;;;;4951529;28;20680;-81
2023/09/29 00:20:35;;;;;;;3.70;1.58;;;;;;;;;;4951600;29;20292;-80
2023/09/29 00:23:02;;;;;;;3.55;1.80;;;;;;;;;;4952179;28;20027;-81
2023/09/29 00:25:28;;;;;;;2.80;1.70;;;;;;;;;;4950939;28;20145;-80
2023/09/29 00:27:55;;;;;;;2.47;1.58;;;;;;;;;;4946737;28;20038;-80
2023/09/29 00:30:21;;;;;;;5.55;1.58;;;;;;;;;;4943983;29;20023;-80
2023/09/29 00:32:51;;;;;;;2.63;1.50;;;;;;;;;;4942533;28;20035;-81
2023/09/29 00:35:24;;;;;;;2.53;1.48;;;12.10;99.90;;;;;;4951423;28;20569;-80
2023/09/29 00:37:53;;;;;;;3.67;2.05;;;;;;;;;;4948092;29;20027;-81
2023/09/29 00:40:19;;;;;;;2.70;1.88;;;;;;;;;;4949084;29;20039;-81
2023/09/29 00:42:46;;;;;;;4.05;1.70;;;;;;;;;;4946803;29;20198;-80
2023/09/29 00:45:16;;;;;;;5.28;2.05;;;;;;;;;;4945719;29;20043;-81
2023/09/29 00:47:42;;;;;;;6.50;2.00;;;;;;;;;;4945854;28;20039;-81
2023/09/29 00:50:10;;;;;;;4.88;1.58;;;;;;;;;;4945124;28;20040;-80
2023/09/29 00:52:38;;;;;;;4.38;1.77;;;;;;;;;;4946445;28;20043;-80
2023/09/29 00:55:05;;;;;;;4.55;1.80;;;;;;;;;;4949127;28;20122;-81
2023/09/29 00:57:33;;;;;;;4.78;1.95;;;;;;;;;;4948081;28;20037;-80
2023/09/29 01:00:00;;;;;;;3.35;1.60;;;12.30;99.90;;;;;;4942635;29;20027;-80
2023/09/29 01:02:26;;;;;;;4.40;1.85;;;;;;;;;;4940840;28;20038;-80
2023/09/29 01:04:53;;;;;;;4.20;1.23;;;;;;;;;;4936699;29;20043;-80
2023/09/29 01:07:19;;;;;;;9.20;1.63;;;;;;;;;;4935105;28;20089;-81
2023/09/29 01:09:46;;;;;;;7.68;2.10;;;;;;;;;;4942105;29;20578;-80
2023/09/29 01:12:25;;;;;;;8.90;1.88;;;;;;;;;;4939341;28;20146;-82
2023/09/29 01:14:51;;;;;;;3.78;1.70;;;;;;;;;;4947766;28;20042;-82
2023/09/29 01:17:18;;;;;;;4.35;1.83;;;;;;;;;;4948629;28;20030;-82
2023/09/29 01:19:44;;;;;;;4.20;1.85;;;;;;;;;;4942107;28;20043;-81
2023/09/29 01:22:10;;;;;;;4.43;1.95;;;;;;;;;;4946568;28;20505;-82
2023/09/29 01:24:36;;;;;;;4.78;2.17;;;11.50;99.90;;;;;;4947467;28;20098;-83
2023/09/29 01:27:02;;;;;;;3.58;1.90;;;;;;;;;;4950382;28;20054;-82
2023/09/29 01:29:28;;;;;;;2.95;1.75;;;;;;;;;;4952811;28;20375;-82
2023/09/29 01:31:54;;;;;;;2.47;1.38;;;;;;;;;;4955285;28;20098;-82
2023/09/29 01:34:20;;;;;;;5.18;2.08;;;;;;;;;;4948468;28;20046;-82
2023/09/29 01:36:48;;;;;;;5.40;2.42;;;;;;;;;;4946370;28;20039;-82
2023/09/29 01:39:14;;;;;;;4.57;2.30;;;;;;;;;;4947840;28;20283;-82
2023/09/29 01:41:43;;;;;;;3.10;1.98;;;;;;;;;;4951771;28;20166;-82
2023/09/29 01:44:09;;;;;;;6.03;2.03;;;;;;;;;;4948810;28;20028;-81
2023/09/29 01:46:35;;;;;;;3.47;1.85;;;;;;;;;;4949665;28;20035;-82
2023/09/29 01:49:01;;;;;;;4.07;1.60;;;;;;;;;;4955353;28;20273;-82
2023/09/29 01:51:30;;;;;;;7.43;2.10;;;;;;;;;;4950102;28;20258;-83
2023/09/29 01:53:57;;;;;;;3.03;2.03;;;;;;;;;;4949460;28;20397;-82
2023/09/29 01:56:23;;;;;;;4.03;1.85;;;;;;;;;;4956642;28;20117;-82
2023/09/29 01:58:50;;;;;;;4.32;2.05;;;;;;;;;;4952409;28;20100;-81
2023/09/29 02:01:16;;;;;;;7.47;1.95;;;;;;;;;;4947378;28;20423;-82
2023/09/29 02:03:45;;;;;;;4.50;2.08;;;;;;;;;;4950503;28;20031;-82
2023/09/29 02:06:11;;;;;;;10.43;2.45;;;;;;;;;;4950138;28;20023;-82
2023/09/29 02:08:38;;;;;;;5.00;2.40;;;;;;;;;;4948308;28;20138;-81
2023/09/29 02:11:07;;;;;;;4.18;1.77;;;;;;;;;;4947983;28;20066;-82
2023/09/29 02:13:33;;;;;;;5.18;2.17;;;;;;;;;;4960850;28;20035;-82
2023/09/29 02:16:00;;;;;;;5.63;2.40;;;;;;;;;;4949706;28;20856;-82
2023/09/29 02:18:27;;;;;;;7.28;2.13;;;;;;;;;;4943678;28;20027;-83
2023/09/29 02:20:54;;;;;;;7.75;2.20;;;;;;;;;;4949182;28;20031;-82
2023/09/29 02:23:22;;;;;;;5.93;2.65;;;;;;;;;;4947426;28;20027;-82
2023/09/29 02:25:48;;;;;;;4.60;2.42;;;;;;;;;;4947535;29;20030;-83
2023/09/29 02:28:14;;;;;;;5.38;2.55;;;;;;;;;;4955562;28;20046;-82
2023/09/29 02:30:41;;;;;;;4.43;1.98;;;;;;;;;;4949397;28;20039;-82
2023/09/29 02:33:06;;;;;;;5.05;2.00;;;11.80;99.90;;;;;;4955629;28;20487;-82
2023/09/29 02:35:33;;;;;;;4.22;1.98;;;;;;;;;;4947760;29;20082;-82
2023/09/29 02:37:59;;;;;;;4.13;1.95;;;;;;;;;;4943498;28;20031;-82
2023/09/29 02:40:25;;;;;;;4.88;2.10;;;;;;;;;;4945363;28;20565;-82
2023/09/29 02:42:51;;;;;;;4.68;1.92;;;;;;;;;;4952765;28;20032;-81
2023/09/29 02:45:17;;;;;;;2.58;1.90;;;;;;;;;;4951555;28;20072;-80
2023/09/29 02:47:46;;;;;;;4.70;2.40;;;;;;;;;;4948372;28;20123;-80
2023/09/29 02:50:12;;;;;;;6.80;2.28;;;;;;;;;;4947649;28;20031;-80
2023/09/29 02:52:40;;;;;;;4.22;2.33;;;;;;;;;;4948371;28;20031;-81
2023/09/29 02:55:08;;;;;;;5.65;2.28;;;;;;;;;;4940271;28;20073;-80
2023/09/29 02:57:34;;;;;;;4.13;1.95;;;;;;;;;;4951908;28;20731;-81
2023/09/29 03:00:06;;;;;;;4.60;2.17;;;;;;;;;;4943405;28;20039;-80
2023/09/29 03:02:32;;;;;;;4.85;2.22;;;;;;;;;;4948064;28;20034;-80
2023/09/29 03:04:58;;;;;;;6.20;2.38;;;;;;;;;;4947552;29;20035;-80
2023/09/29 03:07:24;;;;;;;4.05;2.17;;;;;;;;;;4964694;28;20036;-80
2023/09/29 03:09:50;;;;;;;5.47;2.47;;;;;;;;;;4941907;28;20444;-80
2023/09/29 03:12:16;;;;;;;4.43;2.22;;;;;;;;;;4941033;29;20501;-81
2023/09/29 03:14:42;;;;;;;4.85;2.53;;;;;;;;;;4952075;29;20163;-81
2023/09/29 03:17:08;;;;;;;4.05;2.10;;;;;;;;;;4948407;28;20122;-81
2023/09/29 03:19:36;;;;;;;4.88;2.70;;;;;;;;;;4954734;28;20038;-80
2023/09/29 03:22:02;;;;;;;4.22;2.10;;;;;;;;;;4955172;28;20015;-80
2023/09/29 03:24:28;;;;;;;4.93;2.22;;;;;;;;;;4950336;28;20074;-80
2023/09/29 03:26:54;;;;;;;4.60;2.20;;;;;;;;;;4950806;28;20078;-80
2023/09/29 03:29:20;;;;;;;7.85;3.05;;;;;;;;;;4946868;29;20047;-80
2023/09/29 03:31:47;;;;;;;5.00;2.03;;;;;;;;;;4947218;28;20090;-80
2023/09/29 03:34:15;;;;;;;4.95;2.15;;;;;;;;;;4950135;28;20035;-80
2023/09/29 03:36:40;;;;;;;5.68;2.58;;;11.90;99.90;;;;;;4955375;28;20096;-81
2023/09/29 03:39:07;;;;;;;10.90;2.15;;;;;;;;;;4951405;28;20027;-80
2023/09/29 03:41:33;;;;;;;6.07;2.30;;;;;;;;;;4951373;28;20046;-80
2023/09/29 03:44:00;;;;;;;5.35;2.38;;;;;;;;;;4948974;28;20485;-81
2023/09/29 03:46:26;;;;;;;5.50;2.55;;;;;;;;;;4958510;28;20072;-81
2023/09/29 03:48:52;;;;;;;3.65;1.90;;;;;;;;;;4964988;28;20023;-81
2023/09/29 03:51:22;;;;;;;5.70;2.53;;;;;;;;;;4964858;28;20036;-82
2023/09/29 03:53:48;;;;;;;4.63;2.00;;;;;;;;;;4956782;28;20134;-82
2023/09/29 03:56:14;;;;;;;4.88;2.05;;;;;;;;;;4956294;28;20031;-82
2023/09/29 03:58:41;;;;;;;7.55;2.60;;;;;;;;;;4947090;28;20035;-82
2023/09/29 04:01:06;;;;;;;2.60;1.77;;;11.00;99.90;;;;;;4945595;28;20031;-82
2023/09/29 04:03:33;;;;;;;2.67;1.52;;;;;;;;;;4953477;28;20042;-82
2023/09/29 04:05:59;;;;;;;5.22;2.30;;;;;;;;;;4958698;28;20406;-82
2023/09/29 04:08:25;;;;;;;3.03;1.85;;;;;;;;;;4950023;28;20249;-82
2023/09/29 04:10:52;;;;;;;4.78;2.22;;;;;;;;;;4939809;28;20035;-83
2023/09/29 04:13:19;;;;;;;4.28;2.22;;;;;;;;;;4947575;28;20593;-81
2023/09/29 04:15:44;;;;;;;4.43;2.47;;;11.20;99.90;;;;;;4930930;28;20788;-82
2023/09/29 04:18:10;;;;;;;3.38;2.00;;;;;;;;;;4942065;28;20042;-83
2023/09/29 04:20:36;;;;;;;5.55;2.70;;;;;;;;;;4947817;28;20036;-82
2023/09/29 04:23:02;;;;;;;5.60;2.03;;;;;;;;;;4942897;28;20038;-82
2023/09/29 04:25:28;;;;;;;4.15;2.17;;;;;;;;;;4964381;28;20106;-81
2023/09/29 04:27:55;;;;;;;5.28;2.50;;;;;;;;;;4951909;28;20023;-82
2023/09/29 04:30:21;;;;;;;5.03;2.53;;;;;;;;;;4934389;28;20031;-80
2023/09/29 04:32:47;;;;;;;4.25;2.03;;;;;;;;;;4926503;28;20027;-82
2023/09/29 04:35:13;;;;;;;6.75;2.50;;;;;;;;;;4940067;28;20434;-84
2023/09/29 04:37:41;;;;;;;7.18;3.25;;;;;;;;;;4938040;28;20032;-82
2023/09/29 04:40:07;;;;;;;8.05;3.17;;;;;;;;;;4943140;28;20035;-85
2023/09/29 04:42:34;;;;;;;5.43;2.63;;;;;;;;;;4937312;28;20027;-87
2023/09/29 04:45:00;;;;;;;5.65;2.67;;;;;;;;;;4931129;28;20062;-84
2023/09/29 04:47:27;;;;;;;5.72;2.25;;;;;;;;;;4923622;28;20028;-83
2023/09/29 04:49:53;;;;;;;6.22;2.78;;;;;;;;;;4944301;28;20032;-84
2023/09/29 04:52:19;;;;;;;7.57;2.65;;;;;;;;;;4942249;28;20089;-83
2023/09/29 04:54:45;;;;;;;5.28;2.33;;;;;;;;;;4943376;28;20039;-83
2023/09/29 04:57:11;;;;;;;3.70;2.40;;;;;;;;;;4946672;29;20058;-83
2023/09/29 04:59:37;;;;;;;4.47;2.55;;;;;;;;;;4945762;29;20027;-83
2023/09/29 05:02:05;;;;;;;5.55;2.17;;;;;;;;;;4954069;28;20027;-83
2023/09/29 05:04:32;;;;;;;5.55;2.17;;;;;;;;;;4952595;28;20713;-82
2023/09/29 05:06:57;;;;;;;7.20;1.88;;;;;;;;;;4946296;28;20593;-82
2023/09/29 05:09:24;;;;;;;6.18;2.72;;;;;;;;;;4949409;28;20031;-82
2023/09/29 05:11:49;;;;;;;5.95;2.95;;;;;;;;;;4949548;28;20023;-83
2023/09/29 05:14:15;;;;;;;5.55;2.95;;;;;;;;;;4947123;28;20054;-82
2023/09/29 05:16:41;;;;;;;7.07;2.83;;;;;;;;;;4948070;29;20126;-82
2023/09/29 05:19:07;;;;;;;5.57;2.40;;;;;;;;;;4945749;28;20106;-82
2023/09/29 05:21:34;;;;;;;4.05;2.22;;;;;;;;;;4947924;28;20027;-83
2023/09/29 05:24:01;;;;;;;6.13;2.65;;;;;;;;;;4949570;28;20026;-83
2023/09/29 05:26:27;;;;;;;4.82;2.05;;;;;;;;;;4937119;28;20142;-81
2023/09/29 05:28:53;;;;;;;5.35;2.75;;;;;;;;;;4940983;28;20035;-83
2023/09/29 05:31:19;;;;;;;4.85;2.53;;;;;;;;;;4940321;28;20382;-81
2023/09/29 05:33:45;;;;;;;7.45;3.40;;;;;;;;;;4944355;28;20031;-81
2023/09/29 05:36:11;;;;;;;6.70;2.72;;;;;;;;;;4949986;29;20023;-82
2023/09/29 05:38:37;;;;;;;4.60;2.92;;;;;;;;;;4948591;29;20477;-82
2023/09/29 05:41:03;;;;;;;7.70;3.45;;;;;;;;;;4943813;28;20047;-81
2023/09/29 05:43:29;;;;;;;8.43;2.63;;;;;;;;;;4946594;28;20032;-83
2023/09/29 05:45:55;;;;;;;6.43;3.42;;;;;;;;;;4954810;28;20383;-82
2023/09/29 05:48:21;;;;;;;8.55;2.88;;;;;;;;;;4949144;28;20533;-80
2023/09/29 05:50:47;;;;;;;10.07;3.08;;;;;;;;;;4956941;28;20038;-81
2023/09/29 05:53:13;;;;;;;6.45;3.40;;;;;;;;;;4954046;29;20035;-81
2023/09/29 05:55:39;;;;;;;5.18;3.05;;;;;;;;;;4952697;28;20051;-81
2023/09/29 05:58:05;;;;;;;5.80;3.28;;;;;;;;;;4956869;28;20112;-82
2023/09/29 06:00:31;;;;;;;5.15;2.80;;;;;;;;;;4960659;28;20059;-83
2023/09/29 06:02:59;;;;;;;6.40;3.40;;;;;;;;;;4958196;28;20413;-81
2023/09/29 06:05:26;;;;;;;6.05;3.25;;;;;;;;;;4960646;28;20031;-81
2023/09/29 06:07:52;;;;;;;5.78;3.08;;;12.60;99.90;;;;;;4961013;29;20116;-82
2023/09/29 06:10:18;;;;;;;6.82;3.15;;;;;;;;;;4961376;28;20528;-82
2023/09/29 06:12:44;;;;;;;5.53;2.65;;;;;;;;;;4959851;28;20024;-82
2023/09/29 06:15:11;;;;;;;5.45;3.00;;;;;;;;;;4961245;28;20032;-81
2023/09/29 06:17:37;;;;;;;7.57;3.58;;;;;;;;;;4960932;28;20478;-81
2023/09/29 06:20:04;;;;;;;5.45;2.50;;;;;;;;;;4959991;28;20035;-82
2023/09/29 06:22:30;;;;;;;7.00;2.92;;;;;;;;;;4956345;28;20467;-81
2023/09/29 06:24:56;;;;;;;7.47;3.53;;;;;;;;;;4961092;28;20043;-82
2023/09/29 06:27:22;;;;;;;5.32;2.55;;;;;;;;;;4962536;28;20422;-81
2023/09/29 06:29:50;;;;;;;6.88;3.20;;;;;;;;;;4959568;28;20027;-82
2023/09/29 06:32:16;;;;;;;7.93;3.17;;;;;;;;;;4960218;28;20497;-82
2023/09/29 06:34:42;;;;;;;9.38;4.00;;;;;;;;;;4960955;29;20127;-81
2023/09/29 06:37:09;;;;;;;6.13;3.28;;;;;;;;;;4957973;29;20144;-81
2023/09/29 06:39:35;;;;;;;5.55;2.53;;;13.00;99.90;;;;;;4950965;28;20047;-81
2023/09/29 06:42:01;;;;;;;6.75;3.35;;;;;;;;;;4962199;28;20019;-81
2023/09/29 06:44:27;;;;;;;5.63;3.22;;;;;;;;;;4960520;28;20109;-82
2023/09/29 06:46:52;;;;;;;8.77;3.22;;;14.10;99.90;;;;;;4958609;28;20040;-80
2023/09/29 06:49:18;;;;;;;4.35;2.75;;;13.90;99.90;;;;;;4958425;28;20043;-82
2023/09/29 06:51:44;;;;;;;5.10;2.53;;;;;;;;;;4959415;28;20030;-82
2023/09/29 06:54:10;;;;;;;5.43;2.63;;;;;;;;;;4962849;28;20031;-81
2023/09/29 06:56:37;;;;;;;7.32;3.03;;;;;;;;;;4960079;28;20039;-82
2023/09/29 06:59:03;;;;;;;7.65;2.90;;;;;;;;;;4960028;28;20090;-81
2023/09/29 07:01:28;;;;;;;5.15;2.40;;;;;;;;;;4957930;28;20059;-83
2023/09/29 07:03:55;;;;;;;5.75;2.97;;;;;;;;;;4961491;28;20023;-81
2023/09/29 07:06:25;;;;;;;5.22;2.65;;;;;;;;;;4958955;28;20042;-82
2023/09/29 07:08:51;;;;;;;6.60;2.47;;;14.40;99.90;;;;;;4959427;28;20079;-82
2023/09/29 07:11:18;;;;;;;9.15;2.83;;;;;;;;;;4956551;28;20504;-81
2023/09/29 07:13:44;;;;;;;7.18;2.60;;;;;;;;;;4954742;28;20027;-82
2023/09/29 07:16:10;;;;;;;5.47;3.05;;;;;;;;;;4962254;28;20114;-82
2023/09/29 07:18:36;;;;;;;3.13;2.08;;;;;;;;;;4955304;28;20050;-81
2023/09/29 07:21:02;;;;;;;5.25;2.53;;;;;;;;;;4956713;28;20524;-82
2023/09/29 07:23:33;;;;;;;3.88;2.13;;;;;;;;;;4958597;29;20042;-82
2023/09/29 07:25:59;;;;;;;5.03;2.10;;;15.10;99.90;;;;;;4957502;29;20031;-82
2023/09/29 07:28:25;;;;;;;6.25;2.20;;;;;;;;;;4955253;28;20486;-82
2023/09/29 07:30:51;;;;;;;8.63;2.78;;;;;;;;;;4957548;28;20016;-83
2023/09/29 07:33:17;;;;;;;8.90;2.15;;;;;;;;;;4961088;28;20038;-82
2023/09/29 07:35:46;;;;;;;4.30;2.33;;;;;;;;;;4959036;28;20058;-82
2023/09/29 07:38:13;;;;;;;5.75;1.90;;;;;;;;;;4961431;28;20038;-83
2023/09/29 07:40:39;;;;;;;3.42;2.42;;;;;;;;;;4960307;28;20371;-82
2023/09/29 07:43:05;;;;;;;4.00;1.90;;;16.00;99.90;;;;;;4960469;28;20035;-82
2023/09/29 07:45:32;;;;;;;4.80;1.98;;;;;;;;;;4956302;28;20128;-82
2023/09/29 07:47:58;;;;;;;7.43;2.45;;;;;;;;;;4958329;28;20054;-81
2023/09/29 07:50:24;;;;;;;4.13;2.40;;;;;;;;;;4959394;28;20027;-82
2023/09/29 07:52:50;;;;;;;8.57;2.33;;;;;;;;;;4957601;28;20034;-84
2023/09/29 07:55:16;;;;;;;5.75;2.67;;;;;;;;;;4957065;28;20032;-82
2023/09/29 07:57:42;;;;;;;3.63;2.05;;;;;;;;;;4959380;28;20031;-82
2023/09/29 08:00:16;;;;;;;3.83;2.03;;;;;;;;;;4955758;28;20035;-82
2023/09/29 08:02:43;;;;;;;4.65;2.10;;;;;;;;;;4956967;28;20019;-83
2023/09/29 08:05:12;;;;;;;5.35;2.35;;;17.00;99.90;;;;;;4959091;28;20038;-82
2023/09/29 08:07:39;;;;;;;3.30;1.83;;;17.40;99.90;;;;;;4954690;29;20094;-82
2023/09/29 08:10:06;;;;;;;4.05;2.13;;;17.30;99.90;;;;;;4954487;28;20392;-83
2023/09/29 08:12:32;;;;;;;9.13;1.80;;;;;;;;;;4955986;28;20114;-81
2023/09/29 08:14:59;;;;;;;7.43;2.10;;;;;;;;;;4949225;28;20671;-81
2023/09/29 08:17:26;;;;;;;6.13;1.92;;;;;;;;;;4955250;28;20487;-81
2023/09/29 08:19:52;;;;;;;3.58;1.52;;;;;;;;;;4954314;28;20063;-82
2023/09/29 08:22:18;;;;;;;4.05;2.20;;;;;;;;;;4952417;28;20031;-83
2023/09/29 08:24:44;;;;;;;5.22;2.15;;;;;;;;;;4952955;28;20042;-82
2023/09/29 08:27:10;;;;;;;4.22;1.92;;;;;;;;;;4956914;28;20030;-82
2023/09/29 08:29:36;;;;;;;3.45;1.45;;;;;;;;;;4954527;28;20027;-83
2023/09/29 08:32:02;;;;;;;3.90;2.13;;;18.30;99.90;;;;;;4949683;28;20032;-83
2023/09/29 08:34:30;;;;;;;4.90;1.52;;;;;;;;;;4954515;28;20030;-81
2023/09/29 08:36:56;;;;;;;4.82;1.77;;;;;;;;;;4955312;28;20286;-83
2023/09/29 08:39:22;;;;;;;3.50;1.63;;;;;;;;;;4956999;28;20202;-82
2023/09/29 08:41:55;;;;;;;4.38;1.52;;;19.20;99.90;;;;;;4954658;28;20052;-83
2023/09/29 08:44:25;;;;;;;5.82;1.70;;;21.30;99.90;;;;;;4953990;28;20039;-84
2023/09/29 08:46:53;;;;;;;5.55;1.40;;;23.30;99.90;;;;;;4951852;29;20074;-81
2023/09/29 08:49:20;;;;;;;3.97;1.63;;;25.50;99.90;;;;;;4955072;28;20553;-81
2023/09/29 08:51:47;;;;;;;3.95;1.50;;;24.20;99.90;;;;;;4953016;28;20044;-82
2023/09/29 08:54:17;;;;;;;2.42;1.38;;;;;;;;;;4953775;28;20044;-82
2023/09/29 08:56:43;;;;;;;2.28;1.33;;;;;;;;;;4951356;28;20051;-82
2023/09/29 08:59:09;;;;;;;3.00;1.30;;;;;;;;;;4954289;28;20027;-83
2023/09/29 09:01:35;;;;;;;2.88;1.40;;;23.90;99.90;;;;;;4952407;28;20050;-83
2023/09/29 09:04:01;;;;;;;2.00;1.33;;;;;;;;;;4954952;28;20381;-83
2023/09/29 09:06:27;;;;;;;3.55;1.80;;;23.00;99.90;;;;;;4955003;28;20114;-82
2023/09/29 09:08:54;;;;;;;2.75;1.33;;;23.00;99.90;;;;;;4953202;28;20031;-82
2023/09/29 09:11:20;;;;;;;4.38;1.05;;;;;;;;;;4948019;28;20482;-82
2023/09/29 09:13:59;;;;;;;2.58;1.50;;;23.00;99.90;;;;;;4950287;28;20027;-82
2023/09/29 09:16:26;;;;;;;3.75;1.73;;;23.00;99.90;;;;;;4954151;28;20071;-81
2023/09/29 09:18:53;;;;;;;3.25;1.23;;;22.80;99.90;;;;;;4950774;28;20108;-83
2023/09/29 09:21:19;;;;;;;3.20;0.93;;;;;;;;;;4952073;29;20585;-81
2023/09/29 09:23:45;;;;;;;6.22;1.25;;;22.60;99.90;;;;;;4952580;28;20038;-80
2023/09/29 09:26:16;;;;;;;3.08;1.42;;;22.80;99.90;;;;;;4952813;28;20023;-81
2023/09/29 09:28:43;;;;;;;2.80;1.27;;;22.50;99.90;;;;;;4955194;28;20027;-83
2023/09/29 09:31:10;;;;;;;2.28;1.15;;;22.50;99.90;;;;;;4961230;28;20032;-82
2023/09/29 09:33:36;;;;;;;1.83;0.90;;;22.70;99.90;;;;;;4957254;28;20031;-85
2023/09/29 09:36:09;;;;;;;2.92;1.23;;;22.10;99.90;;;;;;4955518;28;20118;-84
2023/09/29 09:38:35;;;;;;;3.03;1.02;;;;;;;;;;4955263;28;20094;-83
2023/09/29 09:41:01;;;;;;;2.67;1.15;;;22.80;99.90;;;;;;4953657;28;20105;-82
2023/09/29 09:43:29;;;;;;;2.40;1.00;;;23.00;99.90;;;;;;4955269;28;20038;-83
2023/09/29 09:46:03;;;;;;;2.47;1.13;;;;;;;;;;4947441;28;20027;-83
2023/09/29 09:48:55;;;;;;;3.40;1.40;;;23.30;99.90;;;;;;4955057;28;20019;-83
2023/09/29 09:51:47;;;;;;;3.28;1.27;;;23.90;99.90;;;;;;4955453;29;20028;-83
2023/09/29 09:54:19;;;;;;;3.77;0.87;;;23.80;99.90;;;;;;4952603;28;20118;-84
2023/09/29 09:57:06;;;;;;;2.37;1.00;;;23.60;99.90;;;;;;4954535;28;20306;-82
2023/09/29 09:59:33;;;;;;;4.85;1.30;;;24.10;99.90;;;;;;4951943;28;20109;-83
2023/09/29 10:02:00;;;;;;;2.47;1.15;;;24.40;99.90;;;;;;4952607;28;20055;-82
2023/09/29 10:04:28;;;;;;;3.30;1.10;;;;;;;;;;4952925;28;20296;-84
2023/09/29 10:06:56;;;;;;;3.60;1.63;;;24.10;99.90;;;;;;4955508;28;20486;-82
2023/09/29 10:09:22;;;;;;;5.43;1.35;;;;;;;;;;4953695;29;20035;-83
2023/09/29 10:12:00;;;;;;;4.05;1.05;;;25.30;99.90;;;;;;4951115;28;20027;-84
2023/09/29 10:14:27;;;;;;;2.55;0.68;;;;;;;;;;4950873;29;20043;-83
2023/09/29 10:17:02;;;;;;;5.18;1.13;;;25.10;99.90;;;;;;4953613;28;21159;-83
2023/09/29 10:19:38;;;;;;;2.80;1.25;;;25.50;99.90;;;;;;4951512;28;20115;-82
2023/09/29 10:22:04;;;;;;;4.20;1.17;;;25.70;99.90;;;;;;4955053;28;20517;-83
2023/09/29 10:24:30;;;;;;;1.80;0.80;;;;;;;;;;4950498;28;20140;-83
2023/09/29 10:27:06;;;;;;;2.22;1.10;;;25.40;99.90;;;;;;4954079;28;20478;-82
2023/09/29 10:29:37;;;;;;;1.80;0.90;;;25.40;99.90;;;;;;4952462;29;20027;-84
2023/09/29 10:32:08;;;;;;;5.68;1.33;;;25.40;99.90;;;;;;4951460;29;20031;-82
2023/09/29 10:34:34;;;;;;;2.30;1.15;;;;;;;;;;4949838;29;20043;-83
2023/09/29 10:37:00;;;;;;;3.42;1.35;;;;;;;;;;4954307;28;20404;-83
2023/09/29 10:39:27;;;;;;;1.45;0.80;;;25.60;99.90;;;;;;4955055;28;20023;-83
2023/09/29 10:42:12;;;;;;;1.90;0.90;;;25.00;99.90;;;;;;4950171;28;20162;-83
2023/09/29 10:44:52;;;;;;;2.28;0.90;;;25.10;99.90;;;;;;4947907;28;20032;-84
2023/09/29 10:47:36;;;;;;;2.05;0.95;;;25.30;99.90;;;;;;4953240;29;20105;-82
2023/09/29 10:50:11;;;;;;;1.27;0.75;;;;;;;;;;4958349;28;20102;-82
2023/09/29 10:52:39;;;;;;;3.60;1.17;;;;;;;;;;4955699;28;20414;-83
2023/09/29 10:55:05;;;;;;;2.60;1.00;;;25.50;99.90;;;;;;4956489;28;20036;-82
2023/09/29 10:57:33;;;;;;;6.47;1.40;;;;;;;;;;4959795;28;20042;-80
2023/09/29 11:00:01;;;;;;;3.72;1.48;;;25.60;99.90;;;;;;4956517;28;20020;-82
2023/09/29 11:02:36;;;;;;;2.55;1.25;;;25.90;99.90;;;;;;4956962;28;20063;-83
2023/09/29 11:05:09;;;;;;;1.88;0.73;;;25.50;99.90;;;;;;4953379;28;20376;-83
2023/09/29 11:07:47;;;;;;;5.25;0.80;;;26.10;99.90;;;;;;4958307;28;20024;-87
2023/09/29 11:10:13;;;;;;;3.92;1.05;;;25.90;99.90;;;;;;4953761;29;20031;-83
2023/09/29 11:12:43;;;;;;;4.57;1.42;;;;;;;;;;4956858;28;20034;-82
2023/09/29 11:15:09;;;;;;;1.55;0.93;;;25.10;99.90;;;;;;4950036;28;20106;-84
2023/09/29 11:17:50;;;;;;;2.92;1.27;;;25.90;99.90;;;;;;4957753;28;20130;-82
2023/09/29 11:20:26;;;;;;;2.20;1.00;;;25.90;99.90;;;;;;4957071;28;20130;-83
2023/09/29 11:23:16;;;;;;;1.85;1.08;;;25.90;99.90;;;;;;4953987;28;20054;-84
2023/09/29 11:25:46;;;;;;;5.63;1.30;;;26.00;99.90;;;;;;4956543;29;20043;-83
2023/09/29 11:28:12;;;;;;;2.40;0.93;;;26.30;99.90;;;;;;4959954;28;20031;-83
2023/09/29 11:30:39;;;;;;;2.42;1.33;;;26.40;99.90;;;;;;4951874;28;20090;-83
2023/09/29 11:33:06;;;;;;;2.47;0.95;;;;;;;;;;4959053;28;20039;-84
2023/09/29 11:35:32;;;;;;;2.00;1.00;;;;;;;;;;4951480;28;20361;-84
2023/09/29 11:37:58;;;;;;;3.78;1.27;;;;;;;;;;4957208;28;20158;-84
2023/09/29 11:40:24;;;;;;;4.63;1.08;;;;;;;;;;4958177;28;20187;-82
2023/09/29 11:42:50;;;;;;;2.70;1.23;;;;;;;;;;4958641;28;20031;-83
2023/09/29 11:45:16;;;;;;;2.47;1.02;;;;;;;;;;4953166;28;20034;-84
2023/09/29 11:47:42;;;;;;;2.22;0.98;;;;;;;;;;4955160;28;20038;-82
2023/09/29 11:50:08;;;;;;;2.55;0.93;;;26.40;99.90;;;;;;4950154;28;20027;-82
2023/09/29 11:52:35;;;;;;;2.05;0.90;;;26.30;99.90;;;;;;4956778;28;20034;-84
2023/09/29 11:55:03;;;;;;;1.40;0.80;;;;;;;;;;4954239;29;20035;-83
2023/09/29 11:57:29;;;;;;;2.30;1.00;;;;;;;;;;4957680;29;20231;-83
2023/09/29 11:59:55;;;;;;;1.52;0.80;;;;;;;;;;4956409;28;20210;-82
2023/09/29 12:02:22;;;;;;;3.08;1.30;;;26.30;99.90;;;;;;4954404;28;20027;-82
2023/09/29 12:04:48;;;;;;;9.38;1.23;;;;;;;;;;4956398;28;20027;-82
2023/09/29 12:07:14;;;;;;;2.22;0.95;;;;;;;;;;4953818;29;20050;-83
2023/09/29 12:09:40;;;;;;;2.22;1.17;;;;;;;;;;4957677;28;20102;-82
2023/09/29 12:12:06;;;;;;;3.97;1.42;;;;;;;;;;4956678;28;20030;-83
2023/09/29 12:14:32;;;;;;;3.25;1.27;;;26.60;99.90;;;;;;4957593;28;20039;-83
2023/09/29 12:16:58;;;;;;;2.08;1.00;;;;;;;;;;4956206;28;20043;-82
2023/09/29 12:19:25;;;;;;;4.10;1.52;;;;;;;;;;4966031;28;20023;-83
2023/09/29 12:21:50;;;;;;;2.55;1.20;;;;;;;;;;4957984;28;20027;-83
2023/09/29 12:24:16;;;;;;;3.38;1.35;;;;;;;;;;4955264;28;20457;-83
2023/09/29 12:26:46;;;;;;;5.80;1.83;;;;;;;;;;4954020;28;20035;-83
2023/09/29 12:29:12;;;;;;;3.47;1.15;;;;;;;;;;4956936;29;20043;-84
2023/09/29 12:31:38;;;;;;;2.00;0.88;;;;;;;;;;4958100;29;20050;-82
2023/09/29 12:34:04;;;;;;;2.40;1.30;;;;;;;;;;4954880;28;20123;-83
2023/09/29 12:36:31;;;;;;;3.67;1.42;;;;;;;;;;4953891;28;20122;-84
2023/09/29 12:38:57;;;;;;;3.03;1.10;;;26.20;99.90;;;;;;4953814;29;20023;-82
2023/09/29 12:41:23;;;;;;;3.30;1.52;;;26.30;99.90;;;;;;4953767;29;20455;-82
2023/09/29 12:43:50;;;;;;;6.30;1.58;;;;;;;;;;4956350;28;20041;-83
2023/09/29 12:46:16;;;;;;;3.22;1.40;;;;;;;;;;4951032;28;20134;-82
2023/09/29 12:48:43;;;;;;;3.13;1.13;;;;;;;;;;4955359;28;21024;-83
2023/09/29 12:51:20;;;;;;;2.85;1.50;;;26.20;99.90;;;;;;4951874;28;20278;-82
2023/09/29 12:53:47;;;;;;;5.80;1.50;;;;;;;;;;4957163;29;20031;-83
2023/09/29 12:56:16;;;;;;;7.05;1.50;;;25.80;99.90;;;;;;4959545;28;20099;-83
2023/09/29 12:58:42;;;;;;;3.85;1.77;;;;;;;;;;4970829;29;20020;-84
2023/09/29 13:01:08;;;;;;;2.30;1.33;;;;;;;;;;4960487;28;20023;-83
2023/09/29 13:03:35;;;;;;;9.90;1.95;;;;;;;;;;4953986;28;20078;-83
2023/09/29 13:06:03;;;;;;;2.75;1.15;;;25.80;99.90;;;;;;4955852;28;20390;-83
2023/09/29 13:08:29;;;;;;;3.00;1.23;;;;;;;;;;4955506;28;20050;-83
2023/09/29 13:10:55;;;;;;;3.25;1.25;;;;;;;;;;4956951;28;20051;-82
2023/09/29 13:13:22;;;;;;;5.75;2.00;;;;;;;;;;4954201;28;20469;-83
2023/09/29 13:15:50;;;;;;;4.43;1.48;;;;;;;;;;4945446;28;20071;-83
2023/09/29 13:18:16;;;;;;;2.17;1.33;;;;;;;;;;4946091;28;20047;-83
2023/09/29 13:20:42;;;;;;;3.75;1.27;;;26.30;99.90;;;;;;4953396;28;20062;-82
2023/09/29 13:23:08;;;;;;;5.68;2.00;;;;;;;;;;4950378;28;20083;-83
2023/09/29 13:25:34;;;;;;;2.40;1.30;;;26.10;99.90;;;;;;4951533;28;20478;-82
2023/09/29 13:27:59;;;;;;;3.13;1.60;;;26.20;99.90;;;;;;4955678;29;20023;-83
2023/09/29 13:30:25;;;;;;;3.60;1.08;;;;;;;;;;4946942;28;20034;-83
2023/09/29 13:32:51;;;;;;;2.33;0.90;;;25.80;99.90;;;;;;4945449;28;20091;-83
2023/09/29 13:35:16;;;;;;;3.00;1.27;;;25.60;99.90;;;;;;4948537;28;20032;-84
2023/09/29 13:37:43;;;;;;;2.78;1.20;;;;;;;;;;4950525;28;20040;-84
2023/09/29 13:40:09;;;;;;;1.92;1.20;;;25.90;99.90;;;;;;4949237;28;20449;-84
2023/09/29 13:42:35;;;;;;;4.18;1.15;;;26.30;99.90;;;;;;4948093;28;20097;-82
2023/09/29 13:45:01;;;;;;;4.55;1.15;;;26.20;99.90;;;;;;4954521;28;20039;-83
2023/09/29 13:47:26;;;;;;;3.30;1.48;;;26.30;99.90;;;;;;4948173;28;20123;-83
2023/09/29 13:49:52;;;;;;;5.40;1.33;;;26.50;99.90;;;;;;4950144;28;20051;-83
2023/09/29 13:52:19;;;;;;;9.45;1.80;;;26.50;99.90;;;;;;4953223;28;20438;-82
2023/09/29 13:54:53;;;;;;;3.88;1.58;;;26.50;99.90;;;;;;4941190;28;20035;-86
2023/09/29 13:57:20;;;;;;;2.90;1.30;;;26.60;99.90;;;;;;4948181;28;20032;-85
2023/09/29 13:59:46;;;;;;;2.90;0.95;;;;;;;;;;4936934;28;20033;-84
2023/09/29 14:02:12;;;;;;;2.08;1.23;;;;;;;;;;4943648;28;20129;-83
2023/09/29 14:04:39;;;;;;;5.28;1.65;;;26.40;99.90;;;;;;4944497;28;20522;-82
2023/09/29 14:07:05;;;;;;;4.00;1.63;;;;;;;;;;4944429;28;20448;-82
2023/09/29 14:09:31;;;;;;;1.65;0.98;;;;;;;;;;4951292;28;20024;-83